Time;durP1;ratioP1;P1;durP2;ratioP2;P2;SDS_P1;SDS_P2;PMS_P1;PMS_P2;Temp;Humidity;BMP_temperature;BMP_pressure;BME280_temperature;BME280_humidity;BME280_pressure;Samples;Min_cycle;Max_cycle;Signal;HPM_P1;HPM_P2
2024/01/15 00:00:08;;;;;;;10.82;0.80;;;;;;;;;;5118316;27;20078;-79
2024/01/15 00:02:34;;;;;;;9.73;0.68;;;;;;;;;;5119839;27;20116;-79
2024/01/15 00:05:00;;;;;;;14.05;1.20;;;;;;;;;;5103211;27;20043;-79
2024/01/15 00:07:26;;;;;;;13.07;0.75;;;;;;;;;;5119434;27;20042;-79
2024/01/15 00:09:52;;;;;;;10.75;0.90;;;;;;;;;;5119296;27;20050;-79
2024/01/15 00:12:19;;;;;;;7.57;0.50;;;;;;;;;;5102817;27;20385;-79
2024/01/15 00:14:45;;;;;;;12.95;1.00;;;;;;;;;;5119309;27;20054;-79
2024/01/15 00:17:11;;;;;;;12.55;0.77;;;;;;;;;;5119634;27;20054;-79
2024/01/15 00:19:37;;;;;;;9.80;0.50;;;;;;;;;;5119561;27;20483;-79
2024/01/15 00:22:03;;;;;;;10.27;0.70;;;;;;;;;;5119165;27;20050;-79
2024/01/15 00:24:29;;;;;;;13.50;1.05;;;;;;;;;;5137610;27;20081;-78
2024/01/15 00:26:55;;;;;;;12.05;0.90;;;;;;;;;;5119450;27;20047;-79
2024/01/15 00:29:21;;;;;;;14.38;0.95;;;;;;;;;;5137486;27;20043;-79
2024/01/15 00:31:47;;;;;;;9.73;1.02;;;;;;;;;;5119408;27;20057;-79
2024/01/15 00:34:13;;;;;;;10.95;0.77;;;;;;;;;;5119000;27;20073;-79
2024/01/15 00:36:40;;;;;;;10.45;0.82;;;;;;;;;;5102360;27;20082;-79
2024/01/15 00:39:06;;;;;;;10.45;0.88;;;;;;;;;;5119205;27;20130;-80
2024/01/15 00:41:32;;;;;;;12.63;1.17;;;;;;;;;;5101909;27;20432;-79
2024/01/15 00:43:58;;;;;;;10.50;1.02;;;;;;;;;;5119093;27;20051;-79
2024/01/15 00:46:24;;;;;;;8.82;0.63;;;;;;;;;;5137127;27;20047;-80
2024/01/15 00:48:50;;;;;;;10.00;0.90;;;;;;;;;;5118831;27;20047;-79
2024/01/15 00:51:16;;;;;;;9.55;0.50;;;;;;;;;;5118737;27;20058;-80
2024/01/15 00:53:42;;;;;;;8.70;0.75;;;;;;;;;;5118739;27;20520;-79
2024/01/15 00:56:08;;;;;;;11.68;0.52;;;;;;;;;;5118903;27;20039;-79
2024/01/15 00:58:34;;;;;;;7.38;1.05;;;;;;;;;;5136997;27;20054;-79
2024/01/15 01:01:00;;;;;;;10.55;1.00;;;;;;;;;;5118736;27;20051;-79
2024/01/15 01:03:26;;;;;;;6.10;0.50;;;;;;;;;;5118732;27;20138;-79
2024/01/15 01:05:52;;;;;;;16.70;1.50;;;;;;;;;;5118537;27;20092;-79
2024/01/15 01:08:18;;;;;;;10.55;0.70;;;;;;;;;;5136496;27;20049;-79
2024/01/15 01:10:44;;;;;;;10.32;0.98;;;;;;;;;;5135346;27;20567;-79
2024/01/15 01:13:10;;;;;;;13.30;0.93;;;;;;;;;;5136640;27;20082;-79
2024/01/15 01:15:37;;;;;;;9.50;0.43;;;;;;;;;;5136545;27;20411;-79
2024/01/15 01:18:03;;;;;;;8.95;0.88;;;;;;;;;;5118261;27;20445;-79
2024/01/15 01:20:29;;;;;;;9.35;0.40;;;;;;;;;;5118363;27;20070;-79
2024/01/15 01:22:55;;;;;;;9.43;0.75;;;;;;;;;;5118353;27;20047;-79
2024/01/15 01:25:22;;;;;;;10.23;0.70;;;;;;;;;;5101517;27;20093;-79
2024/01/15 01:27:48;;;;;;;11.75;0.95;;;;;;;;;;5118610;27;20047;-80
2024/01/15 01:30:14;;;;;;;11.35;0.80;;;;;;;;;;5136324;27;20043;-79
2024/01/15 01:32:40;;;;;;;6.70;0.30;;;;;;;;;;5136071;27;20054;-79
2024/01/15 01:35:06;;;;;;;10.13;0.77;;;;;;;;;;5118121;27;20462;-79
2024/01/15 01:37:34;;;;;;;9.88;0.68;;;;;;;;;;5117620;27;20455;-79
2024/01/15 01:40:00;;;;;;;8.55;0.50;;;;;;;;;;5117542;27;20140;-79
2024/01/15 01:42:26;;;;;;;5.78;0.70;;;;;;;;;;5135712;27;20539;-79
2024/01/15 01:44:52;;;;;;;9.80;0.70;;;;;;;;;;5117919;27;20035;-79
2024/01/15 01:47:19;;;;;;;9.15;0.63;;;;;;;;;;5135741;27;20043;-79
2024/01/15 01:49:46;;;;;;;8.25;0.73;;;;;;;;;;5135714;27;20083;-79
2024/01/15 01:52:12;;;;;;;10.32;0.68;;;;;;;;;;5135468;27;20517;-79
2024/01/15 01:54:40;;;;;;;16.17;0.55;;;;;;;;;;5117507;27;20051;-80
2024/01/15 01:57:06;;;;;;;15.55;0.77;;;;;;;;;;5135597;27;20130;-80
2024/01/15 01:59:33;;;;;;;9.77;0.70;;;;;;;;;;5100432;27;20047;-79
2024/01/15 02:02:01;;;;;;;9.45;0.70;;;;;;;;;;5135628;27;20047;-80
2024/01/15 02:04:27;;;;;;;8.13;0.90;;;;;;;;;;5117349;27;20051;-80
2024/01/15 02:06:53;;;;;;;9.40;1.77;;;;;;;;;;5117462;27;20509;-80
2024/01/15 02:09:19;;;;;;;14.30;0.70;;;;;;;;;;5135177;27;20054;-80
2024/01/15 02:11:49;;;;;;;16.98;1.65;;;;;;;;;;5117171;27;20489;-80
2024/01/15 02:14:15;;;;;;;13.68;0.85;;;;;;;;;;5135300;27;20043;-81
2024/01/15 02:16:41;;;;;;;11.77;0.75;;;;;;;;;;5117217;27;20130;-80
2024/01/15 02:19:07;;;;;;;8.73;0.38;;;;;;;;;;5117709;27;20043;-80
2024/01/15 02:21:33;;;;;;;9.15;0.77;;;;;;;;;;5117231;27;20394;-80
2024/01/15 02:23:59;;;;;;;13.88;0.70;;;;;;;;;;5116171;27;20449;-80
2024/01/15 02:26:26;;;;;;;10.23;1.67;;;;;;;;;;5116731;27;20051;-80
2024/01/15 02:28:52;;;;;;;7.20;0.40;;;;;;;;;;5116963;27;20084;-80
2024/01/15 02:31:18;;;;;;;5.95;0.30;;;;;;;;;;5117067;27;20125;-80
2024/01/15 02:33:46;;;;;;;8.50;0.40;;;;;;;;;;5116609;27;20456;-80
2024/01/15 02:36:12;;;;;;;7.88;0.30;;;;;;;;;;5117213;27;20051;-80
2024/01/15 02:38:38;;;;;;;9.85;0.30;;;;;;;;;;5116985;27;20130;-80
2024/01/15 02:41:04;;;;;;;4.88;0.20;;;;;;;;;;5116301;27;20043;-80
2024/01/15 02:43:30;;;;;;;2.22;0.20;;;;;;;;;;5099949;27;20047;-80
2024/01/15 02:45:56;;;;;;;5.53;0.20;;;;;;;;;;5116872;27;20050;-80
2024/01/15 02:48:22;;;;;;;4.78;0.20;;;;;;;;;;5134967;27;20101;-80
2024/01/15 02:50:48;;;;;;;8.52;0.40;;;;;;;;;;5115312;27;20371;-81
2024/01/15 02:53:14;;;;;;;1.80;0.10;;;;;;;;;;5095133;28;20085;-80
2024/01/15 02:55:40;;;;;;;3.88;0.20;;;;;;;;;;5095092;28;20136;-80
2024/01/15 02:58:07;;;;;;;2.85;0.52;;;;;;;;;;5095882;28;20050;-80
2024/01/15 03:00:33;;;;;;;3.30;0.15;;;;;;;;;;5096219;28;20543;-80
2024/01/15 03:02:59;;;;;;;3.80;0.22;;;;;;;;;;5096667;28;20047;-80
2024/01/15 03:05:25;;;;;;;4.88;0.10;;;;;;;;;;5079571;28;20059;-81
2024/01/15 03:07:52;;;;;;;2.85;0.20;;;;;;;;;;5096799;28;20082;-80
2024/01/15 03:10:18;;;;;;;2.83;0.10;;;;;;;;;;5095778;28;20056;-80
2024/01/15 03:12:44;;;;;;;4.32;0.10;;;;;;;;;;5095935;28;20051;-80
2024/01/15 03:15:10;;;;;;;1.50;0.15;;;;;;;;;;5114042;28;20079;-81
2024/01/15 03:17:36;;;;;;;5.60;0.30;;;;;;;;;;5079348;28;20055;-80
2024/01/15 03:20:03;;;;;;;5.85;0.55;;;;;;;;;;5113994;28;20092;-80
2024/01/15 03:22:29;;;;;;;5.15;0.17;;;;;;;;;;5095977;28;20143;-81
2024/01/15 03:24:55;;;;;;;6.07;0.20;;;;;;;;;;5079407;28;20054;-80
2024/01/15 03:27:21;;;;;;;4.75;0.20;;;;;;;;;;5095874;28;20134;-80
2024/01/15 03:29:47;;;;;;;5.57;0.20;;;;;;;;;;5096025;28;20044;-80
2024/01/15 03:32:13;;;;;;;5.80;0.20;;;;;;;;;;5079333;28;20484;-81
2024/01/15 03:34:39;;;;;;;6.35;0.20;;;;;;;;;;5097160;28;20043;-80
2024/01/15 03:37:05;;;;;;;6.22;0.50;;;;;;;;;;5118020;28;20054;-80
2024/01/15 03:39:31;;;;;;;3.88;0.40;;;;;;;;;;5099633;28;20055;-80
2024/01/15 03:41:57;;;;;;;4.93;0.20;;;;;;;;;;5099953;28;20058;-80
2024/01/15 03:44:23;;;;;;;3.08;0.35;;;;;;;;;;5099665;28;20059;-81
2024/01/15 03:46:49;;;;;;;5.95;0.20;;;;;;;;;;5100127;28;20059;-80
2024/01/15 03:49:16;;;;;;;5.25;0.40;;;;;;;;;;5082578;28;20055;-81
2024/01/15 03:51:42;;;;;;;5.10;0.30;;;;;;;;;;5099359;28;20104;-80
2024/01/15 03:54:08;;;;;;;3.85;0.68;;;;;;;;;;5099276;28;20047;-80
2024/01/15 03:56:34;;;;;;;5.00;0.52;;;;;;;;;;5099622;28;20518;-81
2024/01/15 03:59:00;;;;;;;5.75;0.30;;;;;;;;;;5098831;28;20480;-81
2024/01/15 04:01:26;;;;;;;8.68;0.40;;;;;;;;;;5099187;28;20465;-80
2024/01/15 04:03:52;;;;;;;9.80;0.50;;;;;;;;;;5099450;28;20400;-81
2024/01/15 04:06:18;;;;;;;7.45;0.50;;;;;;;;;;5099293;28;20395;-80
2024/01/15 04:08:44;;;;;;;8.95;0.43;;;;;;;;;;5099596;28;20134;-80
2024/01/15 04:11:10;;;;;;;4.22;0.30;;;;;;;;;;5116937;28;20052;-80
2024/01/15 04:13:36;;;;;;;5.50;0.50;;;;;;;;;;5099437;28;20079;-80
2024/01/15 04:16:03;;;;;;;9.48;0.50;;;;;;;;;;5099148;28;20125;-81
2024/01/15 04:18:29;;;;;;;8.07;0.50;;;;;;;;;;5099206;28;20135;-81
2024/01/15 04:20:55;;;;;;;7.35;0.70;;;;;;;;;;5099182;28;20051;-81
2024/01/15 04:23:21;;;;;;;12.60;0.85;;;;;;;;;;5099188;28;20100;-81
2024/01/15 04:25:47;;;;;;;7.63;0.77;;;;;;;;;;5117061;28;20047;-81
2024/01/15 04:28:13;;;;;;;7.80;0.47;;;;;;;;;;5098898;28;20048;-81
2024/01/15 04:30:39;;;;;;;8.95;0.43;;;;;;;;;;5098976;28;20503;-80
2024/01/15 04:33:05;;;;;;;10.77;0.40;;;;;;;;;;5099010;28;20047;-80
2024/01/15 04:35:32;;;;;;;6.10;0.40;;;;;;;;;;5099112;28;20480;-81
2024/01/15 04:37:58;;;;;;;10.43;0.70;;;;;;;;;;5098800;28;20044;-81
2024/01/15 04:40:27;;;;;;;9.98;0.77;;;;;;;;;;5098045;28;20052;-80
2024/01/15 04:42:53;;;;;;;10.55;0.68;;;;;;;;;;5098704;28;20108;-80
2024/01/15 04:45:22;;;;;;;8.57;0.85;;;;;;;;;;5116260;28;20047;-80
2024/01/15 04:47:48;;;;;;;7.07;0.50;;;;;;;;;;5097786;28;20059;-81
2024/01/15 04:50:15;;;;;;;8.32;0.65;;;;;;;;;;5098502;28;20048;-81
2024/01/15 04:52:42;;;;;;;9.48;0.65;;;;;;;;;;5097808;28;20051;-81
2024/01/15 04:55:08;;;;;;;7.32;0.52;;;;;;;;;;5097243;28;20113;-81
2024/01/15 04:57:34;;;;;;;7.00;0.60;;;;;;;;;;5098133;28;20066;-81
2024/01/15 05:00:00;;;;;;;11.43;0.65;;;;;;;;;;5098218;28;20075;-81
2024/01/15 05:02:26;;;;;;;4.55;0.52;;;;;;;;;;5098260;28;20047;-80
2024/01/15 05:04:52;;;;;;;12.30;0.65;;;;;;;;;;5116348;28;20043;-80
2024/01/15 05:07:18;;;;;;;12.27;0.80;;;;;;;;;;5098246;28;20051;-81
2024/01/15 05:09:44;;;;;;;14.02;1.52;;;;;;;;;;5097701;28;20055;-81
2024/01/15 05:12:11;;;;;;;11.00;0.50;;;;;;;;;;5097959;28;20069;-81
2024/01/15 05:14:37;;;;;;;11.90;1.17;;;;;;;;;;5080814;28;20043;-81
2024/01/15 05:17:03;;;;;;;7.45;0.85;;;;;;;;;;5098025;28;20069;-81
2024/01/15 05:19:29;;;;;;;8.52;0.70;;;;;;;;;;5115820;28;20044;-81
2024/01/15 05:21:55;;;;;;;8.45;0.63;;;;;;;;;;5115961;28;20096;-81
2024/01/15 05:24:21;;;;;;;12.15;0.75;;;;;;;;;;5097986;28;20051;-81
2024/01/15 05:26:47;;;;;;;8.05;0.30;;;;;;;;;;5097885;28;20049;-81
2024/01/15 05:29:14;;;;;;;10.27;0.90;;;;;;;;;;5115889;28;20227;-81
2024/01/15 05:31:40;;;;;;;12.95;1.40;;;;;;;;;;5097673;28;20051;-81
2024/01/15 05:34:06;;;;;;;9.68;0.70;;;;;;;;;;5115569;28;20044;-81
2024/01/15 05:36:32;;;;;;;13.65;0.82;;;;;;;;;;5097772;28;20104;-81
2024/01/15 05:38:58;;;;;;;9.10;0.50;;;;;;;;;;5115607;28;20043;-81
2024/01/15 05:41:24;;;;;;;10.63;0.55;;;;;;;;;;5096981;28;20039;-81
2024/01/15 05:43:50;;;;;;;8.13;0.38;;;;;;;;;;5097556;28;20050;-81
2024/01/15 05:46:16;;;;;;;6.47;0.50;;;;;;;;;;5097392;28;20387;-81
2024/01/15 05:48:42;;;;;;;8.00;0.35;;;;;;;;;;5064194;28;20104;-81
2024/01/15 05:51:08;;;;;;;9.77;0.30;;;;;;;;;;5096989;28;20047;-81
2024/01/15 05:53:34;;;;;;;5.60;0.40;;;;;;;;;;5097387;28;20069;-81
2024/01/15 05:56:01;;;;;;;9.30;0.82;;;;;;;;;;5097369;28;20100;-81
2024/01/15 05:58:27;;;;;;;7.07;0.30;;;;;;;;;;5097039;28;20040;-81
2024/01/15 06:00:53;;;;;;;5.55;0.52;;;;;;;;;;5114985;28;20131;-81
2024/01/15 06:03:19;;;;;;;5.82;0.50;;;;;;;;;;5097507;28;20044;-81
2024/01/15 06:05:45;;;;;;;7.88;0.60;;;;;;;;;;5096746;28;20043;-81
2024/01/15 06:08:11;;;;;;;4.82;0.68;;;;;;;;;;5097092;28;20039;-81
2024/01/15 06:10:37;;;;;;;7.63;0.55;;;;;;;;;;5096347;28;20039;-81
2024/01/15 06:13:03;;;;;;;7.68;0.60;;;;;;;;;;5096677;28;20077;-81
2024/01/15 06:15:29;;;;;;;9.10;0.47;;;;;;;;;;5115205;28;20100;-81
2024/01/15 06:17:55;;;;;;;8.45;0.30;;;;;;;;;;5080062;28;20055;-81
2024/01/15 06:20:21;;;;;;;5.43;0.70;;;;;;;;;;5114802;28;20134;-81
2024/01/15 06:22:47;;;;;;;7.85;0.57;;;;;;;;;;5114670;28;20388;-81
2024/01/15 06:25:13;;;;;;;9.25;0.40;;;;;;;;;;5114762;28;20422;-81
2024/01/15 06:27:39;;;;;;;7.45;0.40;;;;;;;;;;5096765;28;20055;-81
2024/01/15 06:30:06;;;;;;;5.85;0.30;;;;;;;;;;5097042;28;20487;-81
2024/01/15 06:32:32;;;;;;;6.03;0.32;;;;;;;;;;5079799;28;20055;-81
2024/01/15 06:34:58;;;;;;;3.70;0.20;;;;;;;;;;5080207;28;20047;-81
2024/01/15 06:37:24;;;;;;;9.23;0.52;;;;;;;;;;5114490;28;20087;-81
2024/01/15 06:39:50;;;;;;;9.55;0.40;;;;;;;;;;5096025;28;20044;-81
2024/01/15 06:42:16;;;;;;;7.70;0.40;;;;;;;;;;5114428;28;20072;-81
2024/01/15 06:44:43;;;;;;;9.95;0.35;;;;;;;;;;5096343;28;20385;-81
2024/01/15 06:47:09;;;;;;;5.50;0.60;;;;;;;;;;5096073;28;20039;-81
2024/01/15 06:49:35;;;;;;;5.40;0.50;;;;;;;;;;5128809;27;20047;-81
2024/01/15 06:52:01;;;;;;;7.05;0.75;;;;;;;;;;5116424;27;20147;-81
2024/01/15 06:54:27;;;;;;;5.70;0.30;;;;;;;;;;5116481;27;20483;-81
2024/01/15 06:56:53;;;;;;;5.30;0.20;;;;;;;;;;5116790;28;20429;-81
2024/01/15 06:59:19;;;;;;;8.18;0.25;;;;;;;;;;5099776;28;20090;-81
2024/01/15 07:01:45;;;;;;;4.57;0.25;;;;;;;;;;5099775;28;20097;-81
2024/01/15 07:04:11;;;;;;;2.67;0.20;;;;;;;;;;5116700;28;20108;-81
2024/01/15 07:06:37;;;;;;;2.13;0.20;;;;;;;;;;5116785;28;20475;-81
2024/01/15 07:09:03;;;;;;;4.28;0.20;;;;;;;;;;5134149;27;20387;-81
2024/01/15 07:11:29;;;;;;;4.22;0.20;;;;;;;;;;5116249;28;20054;-81
2024/01/15 07:13:55;;;;;;;2.78;0.20;;;;;;;;;;5116530;28;20122;-81
2024/01/15 07:16:21;;;;;;;3.83;0.20;;;;;;;;;;5116561;28;20051;-80
2024/01/15 07:18:48;;;;;;;3.58;0.20;;;;;;;;;;5116326;28;20490;-80
2024/01/15 07:21:14;;;;;;;3.50;0.20;;;;;;;;;;5134591;28;20046;-81
2024/01/15 07:23:40;;;;;;;7.78;0.30;;;;;;;;;;5116213;28;20085;-80
2024/01/15 07:26:06;;;;;;;7.63;0.40;;;;;;;;;;5116425;28;20130;-81
2024/01/15 07:28:32;;;;;;;4.28;0.20;;;;;;;;;;5116421;28;20051;-80
2024/01/15 07:31:01;;;;;;;3.13;0.20;;;;;;;;;;5134281;28;20047;-80
2024/01/15 07:33:27;;;;;;;3.30;0.40;;;;;;;;;;5116004;28;20460;-80
2024/01/15 07:35:53;;;;;;;6.45;0.65;;;;;;;;;;5097206;27;20057;-81
2024/01/15 07:38:19;;;;;;;5.72;0.50;;;;;;;;;;5137281;27;20042;-84
2024/01/15 07:40:49;;;;;;;3.97;0.20;;;;;;;;;;5136414;27;20040;-81
2024/01/15 07:43:15;;;;;;;6.20;0.63;;;;;;;;;;5130223;27;20043;-82
2024/01/15 07:45:41;;;;;;;6.10;0.43;;;;;;;;;;5133497;27;20043;-82
2024/01/15 07:48:07;;;;;;;6.38;0.43;;;;;;;;;;5119948;27;20050;-82
2024/01/15 07:50:33;;;;;;;7.70;0.40;;;;;;;;;;5136980;27;20082;-83
2024/01/15 07:52:59;;;;;;;3.65;0.45;;;;;;;;;;5136302;27;20051;-83
2024/01/15 07:55:25;;;;;;;7.13;0.60;;;;;;;;;;5136501;27;20447;-83
2024/01/15 07:57:53;;;;;;;9.45;0.63;;;;;;;;;;5119746;27;20047;-84
2024/01/15 08:00:19;;;;;;;4.97;0.47;;;;;;;;;;5136644;27;20448;-85
2024/01/15 08:02:45;;;;;;;6.65;0.65;;;;;;;;;;5119528;27;20129;-83
2024/01/15 08:05:22;;;;;;;5.68;1.02;;;;;;;;;;5136855;27;20043;-88
2024/01/15 08:07:48;;;;;;;5.28;0.57;;;;;;;;;;5120002;27;20038;-82
2024/01/15 08:10:15;;;;;;;6.32;0.73;;;;;;;;;;5129676;27;20059;-81
2024/01/15 08:12:41;;;;;;;4.43;0.40;;;;;;;;;;5100939;28;20479;-84
2024/01/15 08:15:07;;;;;;;8.57;0.47;;;;;;;;;;5098696;28;20043;-81
2024/01/15 08:17:33;;;;;;;8.27;0.60;;;;;;;;;;5099080;28;20051;-81
2024/01/15 08:20:00;;;;;;;8.95;0.70;;;;;;;;;;5115924;27;20180;-81
2024/01/15 08:22:26;;;;;;;5.22;0.50;;;;;;;;;;5118590;27;20047;-81
2024/01/15 08:24:53;;;;;;;9.93;0.70;;;;;;;;;;5119513;27;20078;-81
2024/01/15 08:27:19;;;;;;;9.45;0.50;;;;;;;;;;5102354;27;20475;-80
2024/01/15 08:29:46;;;;;;;4.63;0.38;;;;;;;;;;5102739;27;20047;-82
2024/01/15 08:32:15;;;;;;;5.53;0.50;;;;;;;;;;5119341;27;20047;-82
2024/01/15 08:34:42;;;;;;;8.38;0.47;;;;;;;;;;5119082;27;20068;-80
2024/01/15 08:37:08;;;;;;;7.15;0.40;;;;;;;;;;5119230;27;20047;-81
2024/01/15 08:39:34;;;;;;;5.88;0.50;;;;;;;;;;5119165;27;20441;-77
2024/01/15 08:42:00;;;;;;;9.55;0.75;;;;;;;;;;5136903;27;20145;-80
2024/01/15 08:44:26;;;;;;;10.07;0.50;;;;;;;;;;5119146;27;20051;-79
2024/01/15 08:46:52;;;;;;;5.82;0.68;;;;;;;;;;5118752;27;20116;-80
2024/01/15 08:49:18;;;;;;;5.75;0.50;;;;;;;;;;5119477;27;20055;-80
2024/01/15 08:51:44;;;;;;;4.95;0.40;;;;;;;;;;5137019;27;20067;-79
2024/01/15 08:54:10;;;;;;;7.18;0.50;;;;;;;;;;5118661;27;20068;-80
2024/01/15 08:56:36;;;;;;;5.55;0.45;;;;;;;;;;5118910;27;20051;-80
2024/01/15 08:59:03;;;;;;;3.58;0.30;;;;;;;;;;5118856;27;20051;-79
2024/01/15 09:01:29;;;;;;;3.75;0.30;;;;;;;;;;5136920;27;20390;-80
2024/01/15 09:03:55;;;;;;;8.35;0.50;;;;;;;;;;5118727;27;20051;-80
2024/01/15 09:06:22;;;;;;;7.13;0.55;;;;;;;;;;5136836;27;20089;-80
2024/01/15 09:08:48;;;;;;;1.83;0.20;;;;;;;;;;5118661;27;20047;-80
2024/01/15 09:11:14;;;;;;;3.97;0.75;;;;;;;;;;5118092;27;20095;-80
2024/01/15 09:13:40;;;;;;;8.07;0.75;;;;;;;;;;5101528;27;20049;-80
2024/01/15 09:16:06;;;;;;;5.75;0.30;;;;;;;;;;5101567;27;20054;-80
2024/01/15 09:18:32;;;;;;;8.38;0.55;;;;;;;;;;5118301;27;20146;-80
2024/01/15 09:20:58;;;;;;;4.30;0.40;;;;;;;;;;5118283;27;20130;-80
2024/01/15 09:23:24;;;;;;;3.40;0.30;;;;;;;;;;5118301;27;20080;-79
2024/01/15 09:25:52;;;;;;;4.35;0.30;;;;;;;;;;5118124;27;20046;-79
2024/01/15 09:28:18;;;;;;;6.85;0.90;;;;;;;;;;5118198;27;20066;-80
2024/01/15 09:30:45;;;;;;;5.07;0.30;;;;;;;;;;5101230;27;20101;-80
2024/01/15 09:33:11;;;;;;;5.18;0.30;;;;;;;;;;5100658;27;20047;-80
2024/01/15 09:35:37;;;;;;;3.38;0.28;;;;;;;;;;5118181;27;20054;-80
2024/01/15 09:38:03;;;;;;;5.20;0.30;;;;;;;;;;5136257;27;20050;-80
2024/01/15 09:40:34;;;;;;;3.70;0.32;;;;;;;;;;5135816;27;20058;-80
2024/01/15 09:43:01;;;;;;;8.68;0.50;;;;;;;;;;5118124;27;20047;-80
2024/01/15 09:45:27;;;;;;;5.03;0.30;;;;;;;;;;5117919;27;20043;-80
2024/01/15 09:47:53;;;;;;;5.28;0.40;;;;;;;;;;5117801;27;20092;-80
2024/01/15 09:50:20;;;;;;;5.80;0.40;;;;;;;;;;5117921;27;20043;-81
2024/01/15 09:52:46;;;;;;;4.63;0.30;;;;;;;;;;5135945;27;20066;-80
2024/01/15 09:55:13;;;;;;;4.68;0.30;;;;;;;;;;5117525;27;20055;-80
2024/01/15 09:57:39;;;;;;;5.70;0.60;;;;;;;;;;5117795;27;20129;-80
2024/01/15 10:00:06;;;;;;;7.63;0.50;;;;;;;;;;5117441;27;20051;-81
2024/01/15 10:02:32;;;;;;;7.10;0.30;;;;;;;;;;5100663;27;20055;-81
2024/01/15 10:04:59;;;;;;;4.78;0.50;;;;;;;;;;5117539;27;20547;-81
2024/01/15 10:07:26;;;;;;;7.65;0.77;;;;;;;;;;5117128;27;20483;-81
2024/01/15 10:09:52;;;;;;;10.40;0.65;;;;;;;;;;5135621;27;20134;-81
2024/01/15 10:12:18;;;;;;;2.22;0.30;;;;;;;;;;5117038;27;20051;-81
2024/01/15 10:14:44;;;;;;;9.60;0.50;;;;;;;;;;5117893;27;20372;-81
2024/01/15 10:17:15;;;;;;;6.18;0.50;;;;;;;;;;5117540;27;20039;-81
2024/01/15 10:19:43;;;;;;;5.30;0.45;;;;;;;;;;5135402;27;20065;-81
2024/01/15 10:22:10;;;;;;;5.13;0.70;;;;;;;;;;5117820;27;20405;-81
2024/01/15 10:24:40;;;;;;;3.53;0.20;;;;;;;;;;5117848;27;20399;-82
2024/01/15 10:27:07;;;;;;;5.78;0.32;;;;;;;;;;5135335;27;20047;-81
2024/01/15 10:29:33;;;;;;;2.60;0.20;;;;;;;;;;5116940;27;20491;-81
2024/01/15 10:32:00;;;;;;;3.55;0.22;;;;;;;;;;5117111;27;20043;-82
2024/01/15 10:34:26;;;;;;;3.33;0.28;;;;;;;;;;5099613;27;20043;-81
2024/01/15 10:36:55;;;;;;;3.00;0.15;;;;;;;;;;5116943;27;20043;-81
2024/01/15 10:39:24;;;;;;;2.85;0.55;;;;;;;;;;5117652;27;20054;-80
2024/01/15 10:41:51;;;;;;;3.55;0.80;;;;;;;;;;5134628;27;20134;-80
2024/01/15 10:44:17;;;;;;;3.42;0.10;;;;;;;;;;5116003;27;20103;-81
2024/01/15 10:46:44;;;;;;;0.73;0.10;;;;;;;;;;5117001;27;20099;-80
2024/01/15 10:49:11;;;;;;;1.15;0.10;;;;;;;;;;5135006;27;20051;-81
2024/01/15 10:51:37;;;;;;;1.13;0.10;;;;;;;;;;5134964;27;20055;-80
2024/01/15 10:54:03;;;;;;;2.70;0.10;;;;;;;;;;5116504;27;20134;-80
2024/01/15 10:56:30;;;;;;;3.40;0.20;;;;;;;;;;5116689;27;20043;-80
2024/01/15 10:58:56;;;;;;;1.85;0.10;;;;;;;;;;5116717;28;20317;-80
2024/01/15 11:01:23;;;;;;;2.88;0.10;;;;;;;;;;5116792;28;20043;-80
2024/01/15 11:03:49;;;;;;;1.65;0.10;;;;;;;;;;5134672;27;20092;-80
2024/01/15 11:06:22;;;;;;;3.67;0.10;;;;;;;;;;5134781;27;20039;-80
2024/01/15 11:08:52;;;;;;;4.30;0.15;;;;;;;;;;5116561;28;20039;-80
2024/01/15 11:11:18;;;;;;;1.98;0.22;;;;;;;;;;5116375;28;20387;-80
2024/01/15 11:13:49;;;;;;;2.33;0.10;;;;;;;;;;5116288;28;20042;-80
2024/01/15 11:16:16;;;;;;;3.83;0.10;;;;;;;;;;5134723;28;20047;-81
2024/01/15 11:18:43;;;;;;;1.08;0.10;;;;;;;;;;5134642;28;20133;-81
2024/01/15 11:21:15;;;;;;;1.75;0.20;;;;;;;;;;5116363;28;20047;-80
2024/01/15 11:23:48;;;;;;;1.60;0.13;;;;;;;;;;5134548;28;20043;-80
2024/01/15 11:26:29;;;;;;;6.18;0.20;;;;;;;;;;5116471;28;20494;-80
2024/01/15 11:28:56;;;;;;;3.42;0.20;;;;;;;;;;5116612;28;20387;-80
2024/01/15 11:31:48;;;;;;;1.13;0.10;;;;;;;;;;5116455;28;20096;-80
2024/01/15 11:34:14;;;;;;;4.68;0.20;;;;;;;;;;5102856;28;20097;-80
2024/01/15 11:36:46;;;;;;;3.33;0.10;;;;;;;;;;5116635;28;20364;-80
2024/01/15 11:39:28;;;;;;;5.13;0.35;;;;;;;;;;5134486;28;20084;-80
2024/01/15 11:41:58;;;;;;;1.27;0.10;;;;;;;;;;5115915;28;20611;-80
2024/01/15 11:44:24;;;;;;;1.67;0.13;;;;;;;;;;5116911;28;20398;-79
2024/01/15 11:46:58;;;;;;;1.73;0.10;;;;;;;;;;5134321;28;20047;-81
2024/01/15 11:49:36;;;;;;;0.82;0.10;;;;;;;;;;5116305;28;20388;-80
2024/01/15 11:52:02;;;;;;;1.52;0.10;;;;;;;;;;5112664;28;20127;-80
2024/01/15 11:54:32;;;;;;;2.08;0.10;;;;;;;;;;5112543;28;20109;-80
2024/01/15 11:56:59;;;;;;;0.98;0.10;;;;;;;;;;5116405;28;20070;-80
2024/01/15 11:59:25;;;;;;;1.67;0.20;;;;;;;;;;5116630;28;20058;-80
2024/01/15 12:01:52;;;;;;;0.90;0.05;;;;;;;;;;5116698;28;20048;-80
2024/01/15 12:04:19;;;;;;;1.10;0.10;;;;;;;;;;5116549;28;20065;-80
2024/01/15 12:06:45;;;;;;;3.13;0.10;;;;;;;;;;5116534;28;20090;-80
2024/01/15 12:09:11;;;;;;;4.30;0.10;;;;;;;;;;5117398;28;20062;-80
2024/01/15 12:11:39;;;;;;;1.92;0.10;;;;;;;;;;5116125;28;20043;-80
2024/01/15 12:14:05;;;;;;;2.00;0.10;;;;;;;;;;5117281;28;20048;-80
2024/01/15 12:16:31;;;;;;;3.80;0.13;;;;;;;;;;5092697;27;20054;-80
2024/01/15 12:18:58;;;;;;;2.42;0.15;;;;;;;;;;5114729;27;20124;-81
2024/01/15 12:21:26;;;;;;;2.15;0.20;;;;;;;;;;5110842;27;20500;-80
2024/01/15 12:23:54;;;;;;;2.95;0.63;;;;;;;;;;5114260;27;20135;-80
2024/01/15 12:26:20;;;;;;;2.20;0.40;;;;;;;;;;5078488;28;20887;-81
2024/01/15 12:28:46;;;;;;;5.72;0.40;;;;;;;;;;5097761;28;20491;-81
2024/01/15 12:31:13;;;;;;;5.25;0.20;;;;;;;;;;5095415;28;20077;-81
2024/01/15 12:33:39;;;;;;;4.78;0.20;;;;;;;;;;5112309;28;20111;-81
2024/01/15 12:36:05;;;;;;;3.33;0.20;;;;;;;;;;5094678;28;20047;-81
2024/01/15 12:38:31;;;;;;;1.50;0.25;;;;;;;;;;5112907;28;20452;-81
2024/01/15 12:40:58;;;;;;;0.40;0.10;;;;;;;;;;5114976;28;20044;-81
2024/01/15 12:43:24;;;;;;;1.27;0.10;;;;;;;;;;5114224;28;20043;-81
2024/01/15 12:45:51;;;;;;;1.60;0.10;;;;;;;;;;5111703;28;20051;-81
2024/01/15 12:48:17;;;;;;;0.60;0.00;;;;;;;;;;5112246;28;20058;-81
2024/01/15 12:50:45;;;;;;;1.77;0.10;;;;;;;;;;5114314;28;20051;-81
2024/01/15 12:53:11;;;;;;;2.50;0.10;;;;;;;;;;5114318;27;20056;-81
2024/01/15 12:55:37;;;;;;;2.45;0.00;;;;;;;;;;5116687;27;20047;-81
2024/01/15 12:58:03;;;;;;;2.53;0.20;;;;;;;;;;5095566;28;20122;-82
2024/01/15 13:00:30;;;;;;;5.05;0.10;;;;;;;;;;5109875;28;20048;-81
2024/01/15 13:02:57;;;;;;;4.68;0.20;;;;;;;;;;5111586;28;20043;-81
2024/01/15 13:05:23;;;;;;;3.03;0.10;;;;;;;;;;5112881;28;20073;-81
2024/01/15 13:07:49;;;;;;;1.85;0.10;;;;;;;;;;5113714;28;20074;-81
2024/01/15 13:10:15;;;;;;;1.70;0.10;;;;;;;;;;5114172;28;20104;-81
2024/01/15 13:12:41;;;;;;;2.13;0.10;;;;;;;;;;5107930;28;20050;-81
2024/01/15 13:15:11;;;;;;;2.08;0.35;;;;;;;;;;5112957;28;20039;-80
2024/01/15 13:17:38;;;;;;;1.08;0.10;;;;;;;;;;5091402;28;20083;-81
2024/01/15 13:20:04;;;;;;;1.27;0.10;;;;;;;;;;5111832;28;20059;-81
2024/01/15 13:22:32;;;;;;;3.10;0.10;;;;;;;;;;5107583;28;20046;-81
2024/01/15 13:24:58;;;;;;;4.20;0.20;;;;;;;;;;5102454;27;20047;-81
2024/01/15 13:27:24;;;;;;;6.93;0.63;;;;;;;;;;5113521;28;20503;-81
2024/01/15 13:29:51;;;;;;;4.65;1.85;;;;;;;;;;5110602;28;20043;-81
2024/01/15 13:32:21;;;;;;;6.00;2.35;;;;;;;;;;5113011;28;20394;-81
2024/01/15 13:34:47;;;;;;;4.25;0.50;;;;;;;;;;5108750;28;20517;-81
2024/01/15 13:37:13;;;;;;;3.45;0.30;;;;;;;;;;5097435;28;20055;-81
2024/01/15 13:39:39;;;;;;;1.73;0.10;;;;;;;;;;5114576;28;20047;-81
2024/01/15 13:42:05;;;;;;;4.95;0.20;;;;;;;;;;5096915;28;20047;-81
2024/01/15 13:44:31;;;;;;;2.30;0.17;;;;;;;;;;5114592;28;20051;-81
2024/01/15 13:46:58;;;;;;;7.32;0.52;;;;;;;;;;5115444;28;20082;-81
2024/01/15 13:49:24;;;;;;;2.33;0.20;;;;;;;;;;5114019;28;20419;-81
2024/01/15 13:51:50;;;;;;;4.05;0.30;;;;;;;;;;5114138;28;20051;-81
2024/01/15 13:54:16;;;;;;;5.10;0.20;;;;;;;;;;5113776;28;20097;-80
2024/01/15 13:56:42;;;;;;;4.25;0.30;;;;;;;;;;5098061;28;20052;-80
2024/01/15 13:59:09;;;;;;;7.38;0.20;;;;;;;;;;5096559;28;20138;-81
2024/01/15 14:01:35;;;;;;;4.28;0.30;;;;;;;;;;5113277;28;20056;-81
2024/01/15 14:04:01;;;;;;;6.18;0.63;;;;;;;;;;5113371;28;20130;-81
2024/01/15 14:06:27;;;;;;;4.68;0.20;;;;;;;;;;5113619;28;20044;-81
2024/01/15 14:08:53;;;;;;;3.40;0.20;;;;;;;;;;5115198;28;20122;-80
2024/01/15 14:11:19;;;;;;;4.57;0.68;;;;;;;;;;5113355;28;20044;-80
2024/01/15 14:13:46;;;;;;;1.50;0.22;;;;;;;;;;5112594;28;20055;-81
2024/01/15 14:16:12;;;;;;;2.40;0.30;;;;;;;;;;5113159;28;20086;-81
2024/01/15 14:18:38;;;;;;;8.70;0.60;;;;;;;;;;5114694;28;20040;-80
2024/01/15 14:21:04;;;;;;;6.30;0.47;;;;;;;;;;5112815;28;20500;-80
2024/01/15 14:23:30;;;;;;;3.92;0.50;;;;;;;;;;5113775;28;20130;-80
2024/01/15 14:25:57;;;;;;;4.05;0.70;;;;;;;;;;5114586;28;20058;-81
2024/01/15 14:28:23;;;;;;;4.85;0.40;;;;;;;;;;5096752;28;20051;-81
2024/01/15 14:30:49;;;;;;;8.18;1.38;;;;;;;;;;5079757;28;20478;-80
2024/01/15 14:33:15;;;;;;;9.40;2.35;;;;;;;;;;5118684;27;20425;-80
2024/01/15 14:35:41;;;;;;;11.02;2.67;;;;;;;;;;5100697;28;20050;-80